createdAt,value
2019-06-07T00:01:23.908Z,101634.58
2019-06-07T00:03:56.202Z,101637.27
2019-06-07T00:06:28.472Z,101630.48
2019-06-07T00:09:00.803Z,101631.16
2019-06-07T00:11:34.667Z,101628.16
2019-06-07T00:14:08.577Z,101628.59
2019-06-07T00:16:41.450Z,101626.86
2019-06-07T00:19:15.936Z,101623.61
2019-06-07T00:22:17.689Z,101628.27
2019-06-07T00:24:22.258Z,101632.13
2019-06-07T00:26:58.816Z,101634.77
2019-06-07T00:29:29.710Z,101638.40
2019-06-07T00:32:02.036Z,101634.18
2019-06-07T00:34:34.345Z,101630.18
2019-06-07T00:37:07.107Z,101623.10
2019-06-07T00:39:39.525Z,101621.47
2019-06-07T00:42:16.669Z,101625.67
2019-06-07T00:44:45.826Z,101628.59
2019-06-07T00:47:21.672Z,101636.22
2019-06-07T00:49:54.734Z,101639.48
2019-06-07T00:53:14.131Z,101637.79
2019-06-07T00:55:01.394Z,101642.33
2019-06-07T00:57:34.800Z,101641.74
2019-06-07T01:00:07.662Z,101643.81
2019-06-07T01:02:40.993Z,101635.49
2019-06-07T01:05:15.928Z,101637.48
2019-06-07T01:07:47.463Z,101635.11
2019-06-07T01:10:35.234Z,101637.84
2019-06-07T01:12:53.945Z,101629.35
2019-06-07T01:15:29.112Z,101621.88
2019-06-07T01:18:33.681Z,101615.09
2019-06-07T01:20:34.673Z,101621.08
2019-06-07T01:23:51.982Z,101625.92
2019-06-07T01:25:42.160Z,101629.98
2019-06-07T01:28:16.431Z,101633.70
2019-06-07T01:30:49.452Z,101636.00
2019-06-07T01:33:25.650Z,101636.56
2019-06-07T01:35:57.331Z,101635.94
2019-06-07T01:38:30.164Z,101640.61
2019-06-07T01:41:03.186Z,101636.61
2019-06-07T01:43:35.670Z,101633.51
2019-06-07T01:46:08.215Z,101635.45
2019-06-07T01:48:49.513Z,101634.86
2019-06-07T01:51:16.011Z,101633.31
2019-06-07T01:53:48.652Z,101624.23
2019-06-07T01:56:22.567Z,101625.88
2019-06-07T01:58:56.939Z,101624.13
2019-06-07T02:01:35.010Z,101623.13
2019-06-07T02:04:03.544Z,101626.91
2019-06-07T02:06:36.086Z,101620.27
2019-06-07T02:09:09.361Z,101619.20
2019-06-07T02:11:41.612Z,101613.92
2019-06-07T02:14:13.953Z,101615.96
2019-06-07T02:16:46.874Z,101617.19
2019-06-07T02:19:19.509Z,101610.88
2019-06-07T02:21:52.388Z,101607.44
2019-06-07T02:24:28.406Z,101606.67
2019-06-07T02:27:00.037Z,101606.16
2019-06-07T02:29:33.679Z,101611.88
2019-06-07T02:32:07.204Z,101607.77
2019-06-07T02:34:40.140Z,101615.08
2019-06-07T02:37:12.410Z,101618.50
2019-06-07T02:39:44.749Z,101607.38
2019-06-07T02:42:16.994Z,101606.11
2019-06-07T02:44:49.393Z,101599.27
2019-06-07T02:47:22.769Z,101594.80
2019-06-07T02:49:55.193Z,101593.94
2019-06-07T02:52:33.559Z,101587.44
2019-06-07T02:55:02.711Z,101592.06
2019-06-07T02:57:36.929Z,101601.25
2019-06-07T03:00:40.558Z,101595.77
2019-06-07T03:02:45.660Z,101592.52
2019-06-07T03:05:18.025Z,101594.82
2019-06-07T03:07:50.550Z,101591.05
2019-06-07T03:10:22.786Z,101590.83
2019-06-07T03:12:55.617Z,101593.48
2019-06-07T03:15:39.800Z,101596.39
2019-06-07T03:18:24.395Z,101586.57
2019-06-07T03:21:05.277Z,101583.94
2019-06-07T03:23:34.414Z,101586.30
2019-06-07T03:26:07.777Z,101585.70
2019-06-07T03:28:40.270Z,101585.81
2019-06-07T03:31:12.528Z,101588.95
2019-06-07T03:33:45.684Z,101591.62
2019-06-07T03:36:23.920Z,101585.67
2019-06-07T03:38:52.232Z,101586.45
2019-06-07T03:41:24.612Z,101583.27
2019-06-07T03:43:56.941Z,101577.99
2019-06-07T03:46:34.344Z,101572.22
2019-06-07T03:49:04.140Z,101571.19
2019-06-07T03:51:39.649Z,101576.94
2019-06-07T03:54:10.605Z,101568.78
2019-06-07T03:56:42.979Z,101563.28
2019-06-07T03:59:15.212Z,101561.74
2019-06-07T04:01:47.523Z,101563.34
2019-06-07T04:04:19.754Z,101560.38
2019-06-07T04:06:52.042Z,101566.66
2019-06-07T04:09:24.328Z,101565.30
2019-06-07T04:11:56.715Z,101560.98
2019-06-07T04:14:29.712Z,101562.61
2019-06-07T04:17:03.163Z,101560.42
2019-06-07T04:19:39.405Z,101558.45
2019-06-07T04:22:09.685Z,101574.94
2019-06-07T04:24:42.348Z,101573.91
2019-06-07T04:27:14.651Z,101582.99
2019-06-07T04:30:05.950Z,101594.72
2019-06-07T04:32:21.217Z,101601.02
2019-06-07T04:34:53.734Z,101599.91
2019-06-07T04:37:28.898Z,101590.84
2019-06-07T04:40:01.958Z,101592.90
2019-06-07T04:42:39.170Z,101589.84
2019-06-07T04:45:32.368Z,101587.95
2019-06-07T04:47:45.590Z,101588.63
2019-06-07T04:50:18.003Z,101591.78
2019-06-07T04:52:50.274Z,101593.13
2019-06-07T04:55:22.835Z,101586.55
2019-06-07T04:57:55.462Z,101588.89
2019-06-07T05:00:49.705Z,101590.85
2019-06-07T05:03:08.650Z,101586.25
2019-06-07T05:05:43.933Z,101584.08
2019-06-07T05:08:27.467Z,101580.34
2019-06-07T05:10:50.351Z,101583.83
2019-06-07T05:13:23.067Z,101578.02
2019-06-07T05:15:55.327Z,101583.66
2019-06-07T05:18:27.660Z,101586.89
2019-06-07T05:20:59.983Z,101589.02
2019-06-07T05:26:06.734Z,101591.30
2019-06-07T05:28:42.327Z,101596.27
2019-06-07T05:31:13.361Z,101591.95
2019-06-07T05:33:45.636Z,101592.31
2019-06-07T05:36:18.072Z,101595.70
2019-06-07T05:38:50.328Z,101596.05
2019-06-07T05:41:22.984Z,101592.56
2019-06-07T05:44:11.579Z,101591.23
2019-06-07T05:46:29.244Z,101585.72
2019-06-07T05:49:01.550Z,101586.77
2019-06-07T05:51:34.760Z,101589.80
2019-06-07T05:54:07.067Z,101593.61
2019-06-07T05:56:45.150Z,101600.84
2019-06-07T05:59:16.787Z,101592.87
2019-06-07T06:01:59.784Z,101597.05
2019-06-07T06:04:23.387Z,101596.86
2019-06-07T06:06:55.713Z,101603.02
2019-06-07T06:09:27.986Z,101596.45
2019-06-07T06:12:02.516Z,101589.20
2019-06-07T06:14:35.364Z,101590.80
2019-06-07T06:17:08.418Z,101579.41
2019-06-07T06:19:45.347Z,101582.92
2019-06-07T06:22:14.725Z,101581.64
2019-06-07T06:25:17.081Z,101580.74
2019-06-07T06:28:02.681Z,101581.77
2019-06-07T06:29:55.304Z,101586.87
2019-06-07T06:32:42.165Z,101587.44
2019-06-07T06:35:01.623Z,101579.89
2019-06-07T06:37:34.952Z,101581.09
2019-06-07T06:40:08.129Z,101584.57
2019-06-07T06:42:42.090Z,101583.48
2019-06-07T06:45:15.103Z,101583.25
2019-06-07T06:47:50.458Z,101580.48
2019-06-07T06:50:21.878Z,101578.53
2019-06-07T06:52:54.948Z,101568.01
2019-06-07T06:55:27.485Z,101573.13
2019-06-07T06:57:59.843Z,101572.86
2019-06-07T07:00:56.819Z,101573.98
2019-06-07T07:06:24.241Z,101577.62
2019-06-07T07:08:31.941Z,101574.10
2019-06-07T07:11:05.373Z,101574.16
2019-06-07T07:13:38.009Z,101580.11
2019-06-07T07:16:10.491Z,101576.63
2019-06-07T07:18:44.257Z,101581.64
2019-06-07T07:21:16.945Z,101577.94
2019-06-07T07:24:14.560Z,101581.38
2019-06-07T07:26:23.481Z,101590.47
2019-06-07T07:28:57.818Z,101587.39
2019-06-07T07:31:29.833Z,101588.02
2019-06-07T07:36:39.689Z,101585.27
2019-06-07T07:39:10.770Z,101586.84
2019-06-07T07:42:04.683Z,101580.75
2019-06-07T07:44:17.101Z,101575.98
2019-06-07T07:46:53.799Z,101575.11
2019-06-07T07:49:23.357Z,101577.83
2019-06-07T07:51:59.629Z,101576.76
2019-06-07T07:54:32.507Z,101569.22
2019-06-07T07:57:04.827Z,101559.70
2019-06-07T07:59:44.040Z,101554.95
2019-06-07T08:02:11.159Z,101550.77
2019-06-07T08:05:13.670Z,101552.11
2019-06-07T08:07:17.466Z,101546.81
2019-06-07T08:09:51.450Z,101538.16
2019-06-07T08:12:23.786Z,101547.26
2019-06-07T08:15:02.337Z,101534.19
2019-06-07T08:17:30.046Z,101537.30
2019-06-07T08:20:02.944Z,101530.38
2019-06-07T08:22:35.780Z,101530.58
2019-06-07T08:25:09.063Z,101521.23
2019-06-07T08:27:41.397Z,101516.23
2019-06-07T08:30:47.316Z,101519.47
2019-06-07T08:32:54.623Z,101515.31
2019-06-07T08:36:03.629Z,101504.37
2019-06-07T08:40:32.333Z,101512.75
2019-06-07T08:43:18.283Z,101496.91
2019-06-07T08:45:38.662Z,101500.91
2019-06-07T08:48:27.060Z,101500.11
2019-06-07T08:50:45.791Z,101489.34
2019-06-07T08:53:18.133Z,101500.81
2019-06-07T08:55:52.413Z,101498.70
2019-06-07T08:58:25.924Z,101504.14
2019-06-07T09:01:04.392Z,101491.87
2019-06-07T09:03:32.159Z,101495.80
2019-06-07T09:06:16.359Z,101484.28
2019-06-07T09:08:39.027Z,101476.00
2019-06-07T09:11:11.734Z,101468.16
2019-06-07T09:13:44.050Z,101467.08
2019-06-07T09:16:17.420Z,101464.87
2019-06-07T09:18:49.643Z,101456.06
2019-06-07T09:21:22.002Z,101459.67
2019-06-07T09:23:57.194Z,101448.84
2019-06-07T09:26:30.386Z,101454.98
2019-06-07T09:29:08.409Z,101444.90
2019-06-07T09:31:51.768Z,101447.92
2019-06-07T09:34:15.356Z,101460.30
2019-06-07T09:36:46.098Z,101446.94
2019-06-07T09:39:18.364Z,101438.25
2019-06-07T09:41:50.814Z,101435.10
2019-06-07T09:44:26.023Z,101439.98
2019-06-07T09:47:20.247Z,101440.98
2019-06-07T09:49:33.207Z,101418.29
2019-06-07T09:52:09.087Z,101431.72
2019-06-07T09:55:05.715Z,101416.02
2019-06-07T09:57:17.353Z,101407.69
2019-06-07T09:59:49.360Z,101413.11
2019-06-07T10:02:21.648Z,101411.63
2019-06-07T10:04:53.937Z,101406.09
2019-06-07T10:07:31.827Z,101413.09
2019-06-07T10:12:34.813Z,101423.59
2019-06-07T10:15:07.178Z,101414.61
2019-06-07T10:17:40.175Z,101409.31
2019-06-07T10:20:13.170Z,101417.08
2019-06-07T10:22:45.481Z,101412.01
2019-06-07T10:25:17.764Z,101405.55
2019-06-07T10:27:50.085Z,101409.16
2019-06-07T10:30:22.654Z,101416.39
2019-06-07T10:32:58.429Z,101409.38
2019-06-07T10:35:30.707Z,101406.31
2019-06-07T10:38:04.614Z,101401.45
2019-06-07T10:40:37.305Z,101403.02
2019-06-07T10:43:14.287Z,101410.64
2019-06-07T10:45:44.393Z,101401.27
2019-06-07T10:48:16.909Z,101402.16
2019-06-07T10:50:50.508Z,101381.06
2019-06-07T10:53:24.231Z,101379.53
2019-06-07T10:55:56.521Z,101379.95
2019-06-07T10:58:29.034Z,101382.53
2019-06-07T11:01:03.252Z,101385.27
2019-06-07T11:03:35.664Z,101374.84
2019-06-07T11:06:07.999Z,101361.20
2019-06-07T11:08:41.403Z,101361.10
2019-06-07T11:11:14.454Z,101364.45
2019-06-07T11:13:46.961Z,101358.87
2019-06-07T11:16:19.523Z,101361.21
2019-06-07T11:18:51.915Z,101350.97
2019-06-07T11:21:24.252Z,101337.31
2019-06-07T11:23:56.625Z,101338.89
2019-06-07T11:26:29.033Z,101339.69
2019-06-07T11:29:02.425Z,101323.57
2019-06-07T11:31:34.760Z,101312.49
2019-06-07T11:34:08.233Z,101314.73
2019-06-07T11:36:41.136Z,101312.55
2019-06-07T11:39:15.072Z,101309.58
2019-06-07T11:41:47.539Z,101307.23
2019-06-07T11:44:19.823Z,101295.47
2019-06-07T11:46:52.161Z,101291.74
2019-06-07T11:49:24.701Z,101287.77
2019-06-07T11:51:57.031Z,101289.30
2019-06-07T11:54:29.327Z,101275.49
2019-06-07T11:57:01.767Z,101279.70
2019-06-07T11:59:34.012Z,101266.34
2019-06-07T12:02:07.131Z,101261.33
2019-06-07T12:04:39.635Z,101257.64
2019-06-07T12:07:13.759Z,101253.45
2019-06-07T12:09:55.987Z,101257.84
2019-06-07T12:12:20.779Z,101258.58
2019-06-07T12:14:53.112Z,101246.47
2019-06-07T12:17:26.415Z,101248.27
2019-06-07T12:19:58.743Z,101241.08
2019-06-07T12:22:31.096Z,101237.81
2019-06-07T12:25:05.848Z,101232.70
2019-06-07T12:27:37.465Z,101235.57
2019-06-07T12:30:18.078Z,101245.77
2019-06-07T12:32:45.220Z,101236.19
2019-06-07T12:35:19.995Z,101224.10
2019-06-07T12:37:52.555Z,101221.97
2019-06-07T12:40:30.277Z,101220.97
2019-06-07T12:42:59.013Z,101218.42
2019-06-07T12:45:44.554Z,101221.06
2019-06-07T12:48:05.554Z,101213.89
2019-06-07T12:50:42.958Z,101209.34
2019-06-07T12:53:13.471Z,101210.35
2019-06-07T12:55:45.988Z,101211.80
2019-06-07T12:58:25.875Z,101206.83
2019-06-07T13:00:52.555Z,101199.72
2019-06-07T13:03:25.385Z,101197.81
2019-06-07T13:05:57.729Z,101194.13
2019-06-07T13:08:30.068Z,101189.78
2019-06-07T13:11:14.709Z,101202.05
2019-06-07T13:13:36.663Z,101190.95
2019-06-07T13:16:09.091Z,101184.75
2019-06-07T13:18:41.391Z,101181.64
2019-06-07T13:21:13.895Z,101181.63
2019-06-07T13:23:46.159Z,101177.84
2019-06-07T13:26:18.786Z,101171.02
2019-06-07T13:28:51.095Z,101182.53
2019-06-07T13:31:23.526Z,101176.92
2019-06-07T13:33:55.778Z,101179.16
2019-06-07T13:36:28.468Z,101167.67
2019-06-07T13:39:00.812Z,101158.46
2019-06-07T13:41:42.562Z,101157.89
2019-06-07T13:44:08.340Z,101159.06
2019-06-07T13:46:40.641Z,101154.27
2019-06-07T13:49:14.236Z,101150.06
2019-06-07T13:51:46.581Z,101136.42
2019-06-07T13:54:19.106Z,101135.93
2019-06-07T13:57:02.342Z,101135.34
2019-06-07T13:59:26.438Z,101122.57
2019-06-07T14:01:58.890Z,101117.67
2019-06-07T14:04:31.259Z,101112.17
2019-06-07T14:07:03.643Z,101113.58
2019-06-07T14:09:36.196Z,101117.06
2019-06-07T14:12:09.202Z,101116.85
2019-06-07T14:14:41.462Z,101109.08
2019-06-07T14:17:14.945Z,101103.38
2019-06-07T14:19:47.203Z,101106.97
2019-06-07T14:22:20.534Z,101095.05
2019-06-07T14:24:53.000Z,101095.28
2019-06-07T14:27:25.501Z,101093.23
2019-06-07T14:29:57.778Z,101089.31
2019-06-07T14:32:30.973Z,101080.39
2019-06-07T14:35:03.992Z,101077.69
2019-06-07T14:37:36.285Z,101069.77
2019-06-07T14:40:09.746Z,101067.93
2019-06-07T14:42:42.900Z,101059.82
2019-06-07T14:45:16.819Z,101049.75
2019-06-07T14:47:49.585Z,101044.12
2019-06-07T14:50:22.162Z,101043.67
2019-06-07T14:52:54.823Z,101038.02
2019-06-07T14:55:27.222Z,101028.95
2019-06-07T14:58:00.746Z,101028.78
2019-06-07T15:00:44.283Z,101025.46
2019-06-07T15:03:16.537Z,101030.09
2019-06-07T15:05:48.831Z,101031.19
2019-06-07T15:08:21.147Z,101036.75
2019-06-07T15:10:53.461Z,101031.48
2019-06-07T15:13:27.414Z,101017.23
2019-06-07T15:15:59.875Z,101018.84
2019-06-07T15:18:32.181Z,101008.56
2019-06-07T15:21:04.502Z,101010.15
2019-06-07T15:23:36.805Z,101006.73
2019-06-07T15:26:09.056Z,101001.06
2019-06-07T15:28:41.427Z,101002.56
2019-06-07T15:31:13.782Z,100994.62
2019-06-07T15:33:46.180Z,100989.83
2019-06-07T15:36:18.529Z,100989.56
2019-06-07T15:38:50.800Z,100987.91
2019-06-07T15:41:23.137Z,100995.91
2019-06-07T15:43:55.382Z,100986.57
2019-06-07T15:46:27.705Z,100980.22
2019-06-07T15:49:00.105Z,100971.66
2019-06-07T15:51:32.472Z,100972.61
2019-06-07T15:54:05.859Z,100958.34
2019-06-07T15:56:39.094Z,100959.88
2019-06-07T15:59:11.448Z,100952.23
2019-06-07T16:01:44.799Z,100953.73
2019-06-07T16:04:17.109Z,100954.16
2019-06-07T16:06:50.066Z,100944.67
2019-06-07T16:09:22.373Z,100939.18
2019-06-07T16:11:54.698Z,100943.13
2019-06-07T16:14:27.104Z,100939.97
2019-06-07T16:16:59.394Z,100937.23
2019-06-07T16:19:35.211Z,100926.12
2019-06-07T16:22:06.043Z,100922.14
2019-06-07T16:24:39.764Z,100914.70
2019-06-07T16:27:12.150Z,100911.47
2019-06-07T16:29:45.475Z,100916.54
2019-06-07T16:32:17.783Z,100921.84
2019-06-07T16:34:51.197Z,100916.69
2019-06-07T16:37:23.773Z,100906.69
2019-06-07T16:39:56.115Z,100914.12
2019-06-07T16:42:28.778Z,100915.74
2019-06-07T16:45:01.093Z,100911.50
2019-06-07T16:47:36.857Z,100906.35
2019-06-07T16:50:07.996Z,100905.27
2019-06-07T16:52:41.747Z,100903.58
2019-06-07T16:55:14.636Z,100899.52
2019-06-07T16:57:47.125Z,100893.16
2019-06-07T17:00:20.122Z,100883.78
2019-06-07T17:02:52.485Z,100884.05
2019-06-07T17:05:24.784Z,100876.99
2019-06-07T17:07:57.115Z,100871.55
2019-06-07T17:10:29.391Z,100870.46
2019-06-07T17:13:01.733Z,100878.20
2019-06-07T17:15:34.031Z,100872.19
2019-06-07T17:18:06.400Z,100874.95
2019-06-07T17:20:39.027Z,100877.75
2019-06-07T17:23:11.430Z,100884.79
2019-06-07T17:25:43.674Z,100890.47
2019-06-07T17:28:16.094Z,100887.44
2019-06-07T17:30:48.490Z,100879.66
2019-06-07T17:33:20.856Z,100882.31
2019-06-07T17:35:53.478Z,100876.02
2019-06-07T17:38:25.839Z,100876.43
2019-06-07T17:40:58.131Z,100875.09
2019-06-07T17:43:30.425Z,100874.09
2019-06-07T17:46:02.963Z,100873.60
2019-06-07T17:48:35.229Z,100863.17
2019-06-07T17:51:07.504Z,100863.31
2019-06-07T17:53:45.732Z,100858.20
2019-06-07T17:56:19.332Z,100863.63
2019-06-07T17:58:52.414Z,100871.02
2019-06-07T18:01:24.741Z,100875.31
2019-06-07T18:03:57.032Z,100873.63
2019-06-07T18:06:30.776Z,100874.70
2019-06-07T18:09:03.341Z,100878.66
2019-06-07T18:11:37.121Z,100879.28
2019-06-07T18:14:11.118Z,100880.80
2019-06-07T18:16:44.420Z,100883.97
2019-06-07T18:19:16.802Z,100876.39
2019-06-07T18:21:49.785Z,100881.73
2019-06-07T18:24:23.119Z,100876.47
2019-06-07T18:26:55.701Z,100872.69
2019-06-07T18:29:28.259Z,100871.66
2019-06-07T18:32:00.965Z,100862.31
2019-06-07T18:34:33.307Z,100859.77
2019-06-07T18:37:05.580Z,100856.92
2019-06-07T18:39:38.158Z,100847.36
2019-06-07T18:42:10.439Z,100844.33
2019-06-07T18:44:42.752Z,100845.45
2019-06-07T18:47:15.033Z,100845.69
2019-06-07T18:49:47.501Z,100841.86
2019-06-07T18:52:23.980Z,100842.05
2019-06-07T18:54:56.291Z,100841.02
2019-06-07T18:57:28.604Z,100856.63
2019-06-07T19:00:00.968Z,100870.36
2019-06-07T19:02:33.238Z,100886.56
2019-06-07T19:05:05.972Z,100893.45
2019-06-07T19:07:38.401Z,100894.62
2019-06-07T19:10:12.832Z,100900.52
2019-06-07T19:12:45.106Z,100903.31
2019-06-07T19:15:18.303Z,100907.47
2019-06-07T19:17:51.927Z,100914.27
2019-06-07T19:20:24.602Z,100900.16
2019-06-07T19:22:58.216Z,100904.95
2019-06-07T19:25:30.709Z,100912.83
2019-06-07T19:28:03.219Z,100886.62
2019-06-07T19:30:35.481Z,100891.12
2019-06-07T19:33:07.835Z,100889.34
2019-06-07T19:35:40.188Z,100896.39
2019-06-07T19:38:12.550Z,100902.30
2019-06-07T19:40:45.406Z,100913.50
2019-06-07T19:43:18.796Z,100911.53
2019-06-07T19:45:52.093Z,100920.05
2019-06-07T19:48:24.529Z,100918.41
2019-06-07T19:50:58.961Z,100925.60
2019-06-07T19:53:31.277Z,100932.36
2019-06-07T19:56:04.545Z,100942.20
2019-06-07T19:58:37.839Z,100958.97
2019-06-07T20:01:11.500Z,100967.02
2019-06-07T20:03:43.771Z,100992.29
2019-06-07T20:06:16.057Z,101004.13
2019-06-07T20:08:48.370Z,101011.98
2019-06-07T20:11:20.701Z,101030.22
2019-06-07T20:13:53.057Z,101033.87
2019-06-07T20:16:25.659Z,101040.85
2019-06-07T20:18:58.193Z,101060.48
2019-06-07T20:21:30.586Z,101088.69
2019-06-07T20:24:22.490Z,101066.23
2019-06-07T20:26:37.060Z,101024.63
2019-06-07T20:29:24.822Z,101005.54
2019-06-07T20:31:43.696Z,100985.82
2019-06-07T20:34:16.169Z,100993.97
2019-06-07T20:36:48.506Z,100961.77
2019-06-07T20:39:21.225Z,100943.58
2019-06-07T20:41:53.571Z,100934.51
2019-06-07T20:44:25.844Z,100949.95
2019-06-07T20:46:59.896Z,100961.91
2019-06-07T20:49:32.435Z,100971.45
2019-06-07T20:52:04.931Z,100960.16
2019-06-07T20:54:38.252Z,100972.62
2019-06-07T20:57:12.792Z,100957.04
2019-06-07T20:59:45.156Z,100956.66
2019-06-07T21:02:17.547Z,100953.52
2019-06-07T21:04:49.853Z,100975.80
2019-06-07T21:07:22.187Z,100969.03
2019-06-07T21:09:54.550Z,100987.61
2019-06-07T21:12:26.854Z,101021.27
2019-06-07T21:15:02.134Z,101030.88
2019-06-07T21:17:33.482Z,101041.23
2019-06-07T21:20:08.156Z,101037.66
2019-06-07T21:22:40.345Z,101041.56
2019-06-07T21:25:12.858Z,101066.97
2019-06-07T21:27:45.458Z,101082.78
2019-06-07T21:30:17.830Z,101102.81
2019-06-07T21:32:50.180Z,101112.39
2019-06-07T21:35:22.446Z,101124.92
2019-06-07T21:37:54.771Z,101129.31
2019-06-07T21:40:27.310Z,101136.28
2019-06-07T21:42:59.735Z,101145.78
2019-06-07T21:45:31.998Z,101143.06
2019-06-07T21:48:05.148Z,101115.70
2019-06-07T21:50:38.832Z,101118.30
2019-06-07T21:53:11.139Z,101114.77
2019-06-07T21:55:43.410Z,101138.66
2019-06-07T21:58:15.873Z,101167.19
2019-06-07T22:01:16.359Z,101165.39
2019-06-07T22:03:49.075Z,101153.05
2019-06-07T22:06:21.774Z,101192.99
2019-06-07T22:08:54.041Z,101204.28
2019-06-07T22:11:26.460Z,101212.81
2019-06-07T22:13:59.841Z,101202.73
2019-06-07T22:16:32.202Z,101212.22
2019-06-07T22:19:04.761Z,101195.39
2019-06-07T22:21:37.065Z,101163.94
2019-06-07T22:24:10.902Z,101184.37
2019-06-07T22:26:43.618Z,101179.39
2019-06-07T22:29:15.910Z,101171.69
2019-06-07T22:31:48.379Z,101141.94
2019-06-07T22:34:20.661Z,101134.92
2019-06-07T22:36:52.933Z,101146.25
2019-06-07T22:39:25.227Z,101154.61
2019-06-07T22:41:57.487Z,101152.87
2019-06-07T22:44:29.849Z,101155.44
2019-06-07T22:47:03.133Z,101148.27
2019-06-07T22:49:35.458Z,101134.48
2019-06-07T22:52:11.734Z,101116.25
2019-06-07T22:54:42.346Z,101095.55
2019-06-07T22:57:20.226Z,101067.42
2019-06-07T22:59:52.536Z,101020.23
2019-06-07T23:02:24.797Z,100989.66
2019-06-07T23:04:57.118Z,100995.92
2019-06-07T23:07:29.380Z,100998.38
2019-06-07T23:10:01.797Z,101004.16
2019-06-07T23:12:34.129Z,100993.60
2019-06-07T23:15:06.723Z,101005.47
2019-06-07T23:17:39.017Z,101033.89
2019-06-07T23:20:11.977Z,101068.48
2019-06-07T23:22:44.275Z,101099.89
2019-06-07T23:25:21.970Z,101107.27
2019-06-07T23:27:50.789Z,101111.32
2019-06-07T23:30:24.137Z,101133.36
2019-06-07T23:32:56.389Z,101130.12
2019-06-07T23:35:28.794Z,101117.53
2019-06-07T23:38:01.070Z,101124.67
2019-06-07T23:40:33.378Z,101117.47
2019-06-07T23:43:05.619Z,101108.53
2019-06-07T23:45:37.928Z,101102.86
2019-06-07T23:48:11.223Z,101102.30
2019-06-07T23:50:43.892Z,101112.18
2019-06-07T23:53:16.143Z,101117.20
2019-06-07T23:55:48.436Z,101117.32
2019-06-07T23:58:22.830Z,101121.97
